Chiricana — 3EKU3 — position and weather

sailwx.info

Track history (hours):
 
Tides and Currents Weather Stations Pressure Air Temp Water Temp Dewpoint Dewpoint Depression Visibility Wind Speed Wind Dir Waves Ship Positions

Chiricana

Last reported at 2016-Aug-30 20:34 UTC. Time now 2016-Aug-30 20:48 UTC.
Position N 23°33' E 119°56'.

Length 300 m; draft 12.6 m.

Type: Ship (hazmat cat A). MMSI: 372829000.

Date/timePositionNaut miles runAvg speedWind from/ knotsBaromVisibWave heightAir tempDewpointWater temp
2016-Aug-30 20:34N 23°33' E 119°56'4317.8
2016-Aug-30 18:10N 22°50' E 120°01'1118.0
2016-Aug-30 17:33N 22°40' E 120°07'13 0.6
2016-Aug-29 19:06N 22°33' E 120°19'3 5.9
2016-Aug-29 18:34N 22°32' E 120°15'4 3.7
2016-Aug-29 17:30N 22°31' E 120°11'7 7.6
2016-Aug-29 16:33N 22°31' E 120°03'1212.0
2016-Aug-29 15:33N 22°29' E 119°50'30512.2
2016-Aug-28 14:33N 22°07' E 114°22'19 9.4
2016-Aug-28 12:34N 22°20' E 114°07'1 0.2
2016-Aug-28 09:25N 22°20' E 114°08'0 0.0
2016-Aug-28 08:25N 22°20' E 114°08'0 0.0
2016-Aug-28 07:31N 22°20' E 114°08'0 0.0
2016-Aug-28 06:13N 22°20' E 114°08'0 0.0
2016-Aug-28 05:31N 22°20' E 114°08'0 0.0
2016-Aug-28 04:13N 22°20' E 114°08'0 0.0
2016-Aug-28 03:25N 22°20' E 114°08'0 0.0
2016-Aug-28 01:10N 22°20' E 114°07'3 4.7
2016-Aug-28 00:33N 22°18' E 114°06'16 7.8
2016-Aug-27 22:32N 22°08' E 114°19'1111.0
2016-Aug-27 21:33N 22°15' E 114°28'230 6.6
2016-Aug-26 10:27N 22°25' E 118°37'1718.7
2016-Aug-26 09:34N 22°26' E 118°55'2018.7
2016-Aug-26 08:31N 22°28' E 119°16'1919.2
2016-Aug-26 07:32N 22°29' E 119°36'1919.4
2016-Aug-26 06:34N 22°31' E 119°57'22 1.9
2016-Aug-25 19:16N 22°33' E 120°20'7 0.5
2016-Aug-25 04:33N 22°33' E 120°12'1515.4
2016-Aug-25 03:33N 22°46' E 120°03'6716.5
2016-Aug-24 23:29N 23°53' E 119°59'1718.6
2016-Aug-24 22:33N 24°09' E 120°07'3818.5
2016-Aug-24 20:28N 24°42' E 120°27'  
Track history (hours):
 
Tides and Currents Weather Stations Pressure Air Temp Water Temp Dewpoint Dewpoint Depression Visibility Wind Speed Wind Dir Waves Ship Positions

Chiricana

Last reported at 2016-Aug-30 20:34 UTC. Time now 2016-Aug-30 20:48 UTC.
Position N 23°33' E 119°56'.

Length 300 m; draft 12.6 m.

Type: Ship (hazmat cat A). MMSI: 372829000.

Date/timePositionNaut miles runAvg speedWind from/ knotsBaromVisibWave heightAir tempDewpointWater temp
2016-Aug-30 20:34N 23°33' E 119°56'4317.8
2016-Aug-30 18:10N 22°50' E 120°01'1118.0
2016-Aug-30 17:33N 22°40' E 120°07'13 0.6
2016-Aug-29 19:06N 22°33' E 120°19'3 5.9
2016-Aug-29 18:34N 22°32' E 120°15'4 3.7
2016-Aug-29 17:30N 22°31' E 120°11'7 7.6
2016-Aug-29 16:33N 22°31' E 120°03'1212.0
2016-Aug-29 15:33N 22°29' E 119°50'30512.2
2016-Aug-28 14:33N 22°07' E 114°22'19 9.4
2016-Aug-28 12:34N 22°20' E 114°07'1 0.2
2016-Aug-28 09:25N 22°20' E 114°08'0 0.0
2016-Aug-28 08:25N 22°20' E 114°08'0 0.0
2016-Aug-28 07:31N 22°20' E 114°08'0 0.0
2016-Aug-28 06:13N 22°20' E 114°08'0 0.0
2016-Aug-28 05:31N 22°20' E 114°08'0 0.0
2016-Aug-28 04:13N 22°20' E 114°08'0 0.0
2016-Aug-28 03:25N 22°20' E 114°08'0 0.0
2016-Aug-28 01:10N 22°20' E 114°07'3 4.7
2016-Aug-28 00:33N 22°18' E 114°06'16 7.8
2016-Aug-27 22:32N 22°08' E 114°19'1111.0
2016-Aug-27 21:33N 22°15' E 114°28'230 6.6
2016-Aug-26 10:27N 22°25' E 118°37'1718.7
2016-Aug-26 09:34N 22°26' E 118°55'2018.7
2016-Aug-26 08:31N 22°28' E 119°16'1919.2
2016-Aug-26 07:32N 22°29' E 119°36'1919.4
2016-Aug-26 06:34N 22°31' E 119°57'22 1.9
2016-Aug-25 19:16N 22°33' E 120°20'7 0.5
2016-Aug-25 04:33N 22°33' E 120°12'1515.4
2016-Aug-25 03:33N 22°46' E 120°03'6716.5
2016-Aug-24 23:29N 23°53' E 119°59'1718.6
2016-Aug-24 22:33N 24°09' E 120°07'3818.5
2016-Aug-24 20:28N 24°42' E 120°27'  

Dump ship's entire track history